sensor_id;sensor_type;location;lat;lon;timestamp;pressure;altitude;pressure_sealevel;temperature;humidity
77590;BME280;66746;51.328;12.332;2023-04-20T00:00:00;100775.34;;;4.77;91.03
77590;BME280;66746;51.328;12.332;2023-04-20T00:02:27;100781.69;;;4.67;91.43
77590;BME280;66746;51.328;12.332;2023-04-20T00:04:54;100776.28;;;4.68;91.80
77590;BME280;66746;51.328;12.332;2023-04-20T00:07:20;100770.09;;;4.60;91.75
77590;BME280;66746;51.328;12.332;2023-04-20T00:09:47;100770.97;;;4.61;92.19
77590;BME280;66746;51.328;12.332;2023-04-20T00:12:19;100773.69;;;4.58;92.79
77590;BME280;66746;51.328;12.332;2023-04-20T00:14:47;100768.28;;;4.61;93.13
77590;BME280;66746;51.328;12.332;2023-04-20T00:17:17;100776.34;;;4.65;92.28
77590;BME280;66746;51.328;12.332;2023-04-20T00:19:49;100766.53;;;4.57;93.04
77590;BME280;66746;51.328;12.332;2023-04-20T00:22:16;100775.47;;;4.59;92.49
77590;BME280;66746;51.328;12.332;2023-04-20T00:24:53;100770.09;;;4.62;91.64
77590;BME280;66746;51.328;12.332;2023-04-20T00:27:21;100762.88;;;4.67;91.54
77590;BME280;66746;51.328;12.332;2023-04-20T00:29:51;100762.88;;;4.70;91.68
77590;BME280;66746;51.328;12.332;2023-04-20T00:32:20;100754.81;;;4.67;91.65
77590;BME280;66746;51.328;12.332;2023-04-20T00:34:47;100755.75;;;4.63;91.78
77590;BME280;66746;51.328;12.332;2023-04-20T00:37:16;100751.28;;;4.60;91.97
77590;BME280;66746;51.328;12.332;2023-04-20T00:39:45;100756.66;;;4.60;91.97
77590;BME280;66746;51.328;12.332;2023-04-20T00:42:14;100753.16;;;4.54;92.06
77590;BME280;66746;51.328;12.332;2023-04-20T00:44:45;100749.50;;;4.61;91.96
77590;BME280;66746;51.328;12.332;2023-04-20T00:47:22;100744.22;;;4.48;91.67
77590;BME280;66746;51.328;12.332;2023-04-20T00:49:51;100738.91;;;4.44;92.51
77590;BME280;66746;51.328;12.332;2023-04-20T00:52:18;100741.53;;;4.52;94.20
77590;BME280;66746;51.328;12.332;2023-04-20T00:54:45;100738.81;;;4.53;92.95
77590;BME280;66746;51.328;12.332;2023-04-20T00:57:21;100737.03;;;4.54;92.98
77590;BME280;66746;51.328;12.332;2023-04-20T00:59:47;100737.91;;;4.56;92.69
77590;BME280;66746;51.328;12.332;2023-04-20T01:02:16;100737.97;;;4.46;91.88
77590;BME280;66746;51.328;12.332;2023-04-20T01:04:50;100741.63;;;4.38;91.87
77590;BME280;66746;51.328;12.332;2023-04-20T01:07:23;100727.38;;;4.28;92.50
77590;BME280;66746;51.328;12.332;2023-04-20T01:09:51;100741.69;;;4.30;93.72
77590;BME280;66746;51.328;12.332;2023-04-20T01:12:17;100742.53;;;4.31;93.61
77590;BME280;66746;51.328;12.332;2023-04-20T01:14:46;100729.13;;;4.34;93.24
77590;BME280;66746;51.328;12.332;2023-04-20T01:17:17;100724.56;;;4.45;93.27
77590;BME280;66746;51.328;12.332;2023-04-20T01:19:50;100723.69;;;4.41;92.98
77590;BME280;66746;51.328;12.332;2023-04-20T01:22:21;100727.28;;;4.37;92.86
77590;BME280;66746;51.328;12.332;2023-04-20T01:24:48;100735.34;;;4.40;93.30
77590;BME280;66746;51.328;12.332;2023-04-20T01:27:14;100732.66;;;4.37;92.94
77590;BME280;66746;51.328;12.332;2023-04-20T01:29:41;100734.47;;;4.38;93.85
77590;BME280;66746;51.328;12.332;2023-04-20T01:32:09;100736.28;;;4.36;93.16
77590;BME280;66746;51.328;12.332;2023-04-20T01:34:35;100727.34;;;4.30;94.54
77590;BME280;66746;51.328;12.332;2023-04-20T01:37:04;100732.69;;;4.31;93.10
77590;BME280;66746;51.328;12.332;2023-04-20T01:39:33;100734.53;;;4.26;93.55
77590;BME280;66746;51.328;12.332;2023-04-20T01:42:00;100731.00;;;4.23;93.58
77590;BME280;66746;51.328;12.332;2023-04-20T01:44:26;100728.28;;;4.24;94.63
77590;BME280;66746;51.328;12.332;2023-04-20T01:46:53;100730.03;;;4.27;94.16
77590;BME280;66746;51.328;12.332;2023-04-20T01:49:19;100722.94;;;4.23;93.73
77590;BME280;66746;51.328;12.332;2023-04-20T01:51:52;100723.84;;;4.20;93.71
77590;BME280;66746;51.328;12.332;2023-04-20T01:54:20;100716.72;;;4.16;93.86
77590;BME280;66746;51.328;12.332;2023-04-20T01:56:52;100731.03;;;4.14;94.24
77590;BME280;66746;51.328;12.332;2023-04-20T01:59:21;100723.88;;;4.10;93.28
77590;BME280;66746;51.328;12.332;2023-04-20T02:01:53;100737.28;;;4.16;94.57
77590;BME280;66746;51.328;12.332;2023-04-20T02:04:20;100728.34;;;4.17;95.26
77590;BME280;66746;51.328;12.332;2023-04-20T02:06:54;100737.25;;;4.22;93.73
77590;BME280;66746;51.328;12.332;2023-04-20T02:09:25;100718.50;;;4.14;94.02
77590;BME280;66746;51.328;12.332;2023-04-20T02:11:54;100727.44;;;4.16;93.92
77590;BME280;66746;51.328;12.332;2023-04-20T02:14:23;100725.63;;;4.15;94.21
77590;BME280;66746;51.328;12.332;2023-04-20T02:16:50;100719.44;;;4.10;93.56
77590;BME280;66746;51.328;12.332;2023-04-20T02:19:19;100717.63;;;4.08;93.64
77590;BME280;66746;51.328;12.332;2023-04-20T02:21:51;100720.34;;;4.06;94.19
77590;BME280;66746;51.328;12.332;2023-04-20T02:24:20;100716.81;;;4.01;94.93
77590;BME280;66746;51.328;12.332;2023-04-20T02:26:50;100715.00;;;4.03;94.08
77590;BME280;66746;51.328;12.332;2023-04-20T02:29:20;100723.91;;;4.04;94.43
77590;BME280;66746;51.328;12.332;2023-04-20T02:31:52;100718.53;;;4.05;94.43
77590;BME280;66746;51.328;12.332;2023-04-20T02:34:20;100723.03;;;4.05;94.29
77590;BME280;66746;51.328;12.332;2023-04-20T02:36:50;100727.47;;;4.07;95.52
77590;BME280;66746;51.328;12.332;2023-04-20T02:39:17;100720.38;;;4.03;94.86
77590;BME280;66746;51.328;12.332;2023-04-20T02:41:52;100726.59;;;4.05;94.55
77590;BME280;66746;51.328;12.332;2023-04-20T02:44:19;100719.50;;;4.01;94.56
77590;BME280;66746;51.328;12.332;2023-04-20T02:46:54;100722.13;;;4.04;95.15
77590;BME280;66746;51.328;12.332;2023-04-20T02:49:23;100723.94;;;4.02;94.10
77590;BME280;66746;51.328;12.332;2023-04-20T02:51:50;100723.97;;;3.96;95.27
77590;BME280;66746;51.328;12.332;2023-04-20T02:54:16;100732.00;;;4.01;95.22
77590;BME280;66746;51.328;12.332;2023-04-20T02:56:43;100722.16;;;4.01;95.22
77590;BME280;66746;51.328;12.332;2023-04-20T02:59:09;100722.13;;;4.04;95.44
77590;BME280;66746;51.328;12.332;2023-04-20T03:01:41;100724.81;;;4.04;95.13
77590;BME280;66746;51.328;12.332;2023-04-20T03:04:13;100707.88;;;3.95;94.88
77590;BME280;66746;51.328;12.332;2023-04-20T03:06:50;100719.47;;;4.04;95.29
77590;BME280;66746;51.328;12.332;2023-04-20T03:09:22;100722.13;;;4.04;95.85
77590;BME280;66746;51.328;12.332;2023-04-20T03:12:05;100727.44;;;4.13;94.92
77590;BME280;66746;51.328;12.332;2023-04-20T03:14:56;100720.34;;;4.06;95.15
77590;BME280;66746;51.328;12.332;2023-04-20T03:17:41;100723.06;;;4.03;95.94
77590;BME280;66746;51.328;12.332;2023-04-20T03:20:10;100714.94;;;4.09;95.70
77590;BME280;66746;51.328;12.332;2023-04-20T03:22:37;100718.53;;;4.13;95.48
77590;BME280;66746;51.328;12.332;2023-04-20T03:25:05;100711.38;;;4.07;95.19
77590;BME280;66746;51.328;12.332;2023-04-20T03:28:01;100717.63;;;4.12;95.26
77590;BME280;66746;51.328;12.332;2023-04-20T03:30:28;100722.06;;;4.13;95.63
77590;BME280;66746;51.328;12.332;2023-04-20T03:33:02;100712.28;;;4.11;95.46
77590;BME280;66746;51.328;12.332;2023-04-20T03:35:30;100710.41;;;4.17;95.53
77590;BME280;66746;51.328;12.332;2023-04-20T03:37:57;100713.13;;;4.19;94.79
77590;BME280;66746;51.328;12.332;2023-04-20T03:40:23;100718.50;;;4.14;95.10
77590;BME280;66746;51.328;12.332;2023-04-20T03:42:51;100711.38;;;4.10;95.76
77590;BME280;66746;51.328;12.332;2023-04-20T03:45:18;100715.81;;;4.14;94.77
77590;BME280;66746;51.328;12.332;2023-04-20T03:47:44;100713.16;;;4.05;95.16
77590;BME280;66746;51.328;12.332;2023-04-20T03:50:11;100723.94;;;4.02;94.51
77590;BME280;66746;51.328;12.332;2023-04-20T03:52:39;100720.41;;;3.94;95.81
77590;BME280;66746;51.328;12.332;2023-04-20T03:55:08;100730.22;;;4.01;94.94
77590;BME280;66746;51.328;12.332;2023-04-20T03:57:38;100727.53;;;3.98;94.66
77590;BME280;66746;51.328;12.332;2023-04-20T04:00:06;100732.91;;;3.98;94.96
77590;BME280;66746;51.328;12.332;2023-04-20T04:02:43;100731.13;;;3.97;93.97
77590;BME280;66746;51.328;12.332;2023-04-20T04:05:10;100728.44;;;3.96;94.48
77590;BME280;66746;51.328;12.332;2023-04-20T04:07:36;100728.44;;;3.97;93.73
77590;BME280;66746;51.328;12.332;2023-04-20T04:10:06;100731.16;;;3.91;93.79
77590;BME280;66746;51.328;12.332;2023-04-20T04:12:32;100729.38;;;3.84;94.66
77590;BME280;66746;51.328;12.332;2023-04-20T04:14:59;100729.38;;;3.87;93.92
77590;BME280;66746;51.328;12.332;2023-04-20T04:17:29;100745.47;;;3.84;94.10
77590;BME280;66746;51.328;12.332;2023-04-20T04:19:56;100738.31;;;3.86;94.03
77590;BME280;66746;51.328;12.332;2023-04-20T04:22:22;100733.84;;;3.91;94.22
77590;BME280;66746;51.328;12.332;2023-04-20T04:25:10;100732.03;;;3.95;93.94
77590;BME280;66746;51.328;12.332;2023-04-20T04:27:37;100709.66;;;3.96;94.38
77590;BME280;66746;51.328;12.332;2023-04-20T04:30:05;100715.91;;;3.98;93.94
77590;BME280;66746;51.328;12.332;2023-04-20T04:32:32;100732.91;;;3.98;94.07
77590;BME280;66746;51.328;12.332;2023-04-20T04:34:59;100740.91;;;4.04;94.02
77590;BME280;66746;51.328;12.332;2023-04-20T04:37:26;100739.13;;;4.06;93.51
77590;BME280;66746;51.328;12.332;2023-04-20T04:39:54;100747.13;;;4.09;94.23
77590;BME280;66746;51.328;12.332;2023-04-20T04:42:33;100741.78;;;4.12;93.51
77590;BME280;66746;51.328;12.332;2023-04-20T04:45:01;100744.47;;;4.08;93.86
77590;BME280;66746;51.328;12.332;2023-04-20T04:47:33;100743.56;;;4.07;94.16
77590;BME280;66746;51.328;12.332;2023-04-20T04:49:59;100742.69;;;4.05;93.55
77590;BME280;66746;51.328;12.332;2023-04-20T04:52:27;100744.53;;;3.97;93.98
77590;BME280;66746;51.328;12.332;2023-04-20T04:54:53;100743.59;;;4.04;93.67
77590;BME280;66746;51.328;12.332;2023-04-20T04:57:20;100760.59;;;4.05;94.20
77590;BME280;66746;51.328;12.332;2023-04-20T04:59:48;100754.31;;;4.10;94.94
77590;BME280;66746;51.328;12.332;2023-04-20T05:02:14;100752.47;;;4.15;94.38
77590;BME280;66746;51.328;12.332;2023-04-20T05:04:41;100753.38;;;4.20;94.52
77590;BME280;66746;51.328;12.332;2023-04-20T05:07:07;100758.66;;;4.31;93.88
77590;BME280;66746;51.328;12.332;2023-04-20T05:09:34;100751.47;;;4.36;93.83
77590;BME280;66746;51.328;12.332;2023-04-20T05:12:00;100754.97;;;4.42;92.87
77590;BME280;66746;51.328;12.332;2023-04-20T05:14:27;100756.75;;;4.46;92.96
77590;BME280;66746;51.328;12.332;2023-04-20T05:16:55;100762.09;;;4.51;93.31
77590;BME280;66746;51.328;12.332;2023-04-20T05:19:22;100761.16;;;4.57;93.57
77590;BME280;66746;51.328;12.332;2023-04-20T05:21:48;100768.28;;;4.61;93.12
77590;BME280;66746;51.328;12.332;2023-04-20T05:24:18;100764.69;;;4.65;92.64
77590;BME280;66746;51.328;12.332;2023-04-20T05:26:44;100758.41;;;4.69;92.55
77590;BME280;66746;51.328;12.332;2023-04-20T05:29:11;100761.13;;;4.66;92.06
77590;BME280;66746;51.328;12.332;2023-04-20T05:31:37;100762.06;;;4.57;92.85
77590;BME280;66746;51.328;12.332;2023-04-20T05:34:05;100766.56;;;4.54;92.30
77590;BME280;66746;51.328;12.332;2023-04-20T05:36:32;100778.25;;;4.45;93.44
77590;BME280;66746;51.328;12.332;2023-04-20T05:38:58;100779.16;;;4.44;93.37
77590;BME280;66746;51.328;12.332;2023-04-20T05:41:25;100784.47;;;4.52;93.11
77590;BME280;66746;51.328;12.332;2023-04-20T05:43:51;100786.22;;;4.57;93.67
77590;BME280;66746;51.328;12.332;2023-04-20T05:46:18;100782.59;;;4.66;93.07
77590;BME280;66746;51.328;12.332;2023-04-20T05:48:44;100784.41;;;4.64;93.24
77590;BME280;66746;51.328;12.332;2023-04-20T05:51:12;100786.13;;;4.74;93.68
77590;BME280;66746;51.328;12.332;2023-04-20T05:53:38;100787.84;;;4.81;92.25
77590;BME280;66746;51.328;12.332;2023-04-20T05:56:06;100800.44;;;4.76;92.38
77590;BME280;66746;51.328;12.332;2023-04-20T05:58:33;100800.44;;;4.73;92.47
77590;BME280;66746;51.328;12.332;2023-04-20T06:01:00;100800.34;;;4.85;91.72
77590;BME280;66746;51.328;12.332;2023-04-20T06:03:26;100802.09;;;4.92;91.46
77590;BME280;66746;51.328;12.332;2023-04-20T06:05:53;100804.78;;;4.90;91.33
77590;BME280;66746;51.328;12.332;2023-04-20T06:08:21;100814.59;;;4.99;91.55
77590;BME280;66746;51.328;12.332;2023-04-20T06:10:47;100804.72;;;5.01;91.17
77590;BME280;66746;51.328;12.332;2023-04-20T06:13:14;100819.88;;;5.11;91.20
77590;BME280;66746;51.328;12.332;2023-04-20T06:15:40;100825.22;;;5.14;91.53
77590;BME280;66746;51.328;12.332;2023-04-20T06:18:07;100814.50;;;5.11;89.33
77590;BME280;66746;51.328;12.332;2023-04-20T06:20:33;100818.97;;;5.07;90.10
77590;BME280;66746;51.328;12.332;2023-04-20T06:22:59;100820.78;;;5.08;89.63
77590;BME280;66746;51.328;12.332;2023-04-20T06:25:27;100824.25;;;5.19;89.83
77590;BME280;66746;51.328;12.332;2023-04-20T06:27:54;100827.75;;;5.32;90.02
77590;BME280;66746;51.328;12.332;2023-04-20T06:30:20;100824.88;;;5.52;89.28
77590;BME280;66746;51.328;12.332;2023-04-20T06:32:47;100819.22;;;5.77;88.42
77590;BME280;66746;51.328;12.332;2023-04-20T06:35:13;100820.13;;;5.76;86.63
77590;BME280;66746;51.328;12.332;2023-04-20T06:37:40;100833.63;;;5.73;86.85
77590;BME280;66746;51.328;12.332;2023-04-20T06:40:07;100837.31;;;5.60;86.83
77590;BME280;66746;51.328;12.332;2023-04-20T06:42:35;100832.75;;;5.70;86.87
77590;BME280;66746;51.328;12.332;2023-04-20T06:45:02;100833.75;;;5.58;85.00
77590;BME280;66746;51.328;12.332;2023-04-20T06:47:29;100845.53;;;5.48;85.91
77590;BME280;66746;51.328;12.332;2023-04-20T06:49:55;100827.78;;;5.26;86.23
77590;BME280;66746;51.328;12.332;2023-04-20T06:52:22;100837.56;;;5.36;86.07
77590;BME280;66746;51.328;12.332;2023-04-20T06:54:48;100833.94;;;5.38;85.54
77590;BME280;66746;51.328;12.332;2023-04-20T06:57:15;100835.66;;;5.47;84.23
77590;BME280;66746;51.328;12.332;2023-04-20T06:59:42;100834.72;;;5.51;84.13
77590;BME280;66746;51.328;12.332;2023-04-20T07:02:09;100837.47;;;5.48;84.42
77590;BME280;66746;51.328;12.332;2023-04-20T07:04:35;100839.16;;;5.55;84.62
77590;BME280;66746;51.328;12.332;2023-04-20T07:07:02;100832.03;;;5.51;84.88
77590;BME280;66746;51.328;12.332;2023-04-20T07:09:28;100838.97;;;5.72;86.92
77590;BME280;66746;51.328;12.332;2023-04-20T07:11:55;100814.94;;;5.57;83.79
77590;BME280;66746;51.328;12.332;2023-04-20T07:14:21;100829.03;;;5.84;85.35
77590;BME280;66746;51.328;12.332;2023-04-20T07:16:52;100827.16;;;5.89;83.44
77590;BME280;66746;51.328;12.332;2023-04-20T07:19:19;100824.41;;;5.95;82.97
77590;BME280;66746;51.328;12.332;2023-04-20T07:21:45;100833.28;;;6.06;81.90
77590;BME280;66746;51.328;12.332;2023-04-20T07:24:12;100835.94;;;6.08;83.83
77590;BME280;66746;51.328;12.332;2023-04-20T07:26:38;100835.09;;;6.01;82.24
77590;BME280;66746;51.328;12.332;2023-04-20T07:29:05;100825.91;;;6.19;81.35
77590;BME280;66746;51.328;12.332;2023-04-20T07:31:31;100811.31;;;6.37;78.88
77590;BME280;66746;51.328;12.332;2023-04-20T07:34:01;100820.28;;;6.40;79.50
77590;BME280;66746;51.328;12.332;2023-04-20T07:36:28;100822.84;;;6.48;78.05
77590;BME280;66746;51.328;12.332;2023-04-20T07:38:55;100818.44;;;7.01;76.87
77590;BME280;66746;51.328;12.332;2023-04-20T07:41:21;100827.56;;;7.48;76.29
77590;BME280;66746;51.328;12.332;2023-04-20T07:43:47;100821.09;;;8.03;73.96
77590;BME280;66746;51.328;12.332;2023-04-20T07:46:18;100831.28;;;8.35;73.21
77590;BME280;66746;51.328;12.332;2023-04-20T07:48:45;100831.09;;;7.97;72.66
77590;BME280;66746;51.328;12.332;2023-04-20T07:51:13;100830.34;;;7.90;74.04
77590;BME280;66746;51.328;12.332;2023-04-20T07:53:40;100831.44;;;7.80;73.88
77590;BME280;66746;51.328;12.332;2023-04-20T07:56:07;100836.59;;;7.45;73.68
77590;BME280;66746;51.328;12.332;2023-04-20T07:58:33;100836.91;;;7.27;75.10
77590;BME280;66746;51.328;12.332;2023-04-20T08:01:00;100842.50;;;7.67;75.76
77590;BME280;66746;51.328;12.332;2023-04-20T08:03:26;100844.50;;;8.04;73.88
77590;BME280;66746;51.328;12.332;2023-04-20T08:05:53;100839.25;;;7.95;72.91
77590;BME280;66746;51.328;12.332;2023-04-20T08:08:20;100841.50;;;7.72;73.13
77590;BME280;66746;51.328;12.332;2023-04-20T08:10:47;100848.53;;;7.79;72.87
77590;BME280;66746;51.328;12.332;2023-04-20T08:13:13;100834.66;;;8.00;73.33
77590;BME280;66746;51.328;12.332;2023-04-20T08:15:40;100835.34;;;8.12;72.29
77590;BME280;66746;51.328;12.332;2023-04-20T08:18:06;100831.44;;;8.28;71.18
77590;BME280;66746;51.328;12.332;2023-04-20T08:20:33;100833.53;;;8.12;70.23
77590;BME280;66746;51.328;12.332;2023-04-20T08:23:04;100820.06;;;8.52;71.09
77590;BME280;66746;51.328;12.332;2023-04-20T08:25:32;100813.44;;;9.06;69.00
77590;BME280;66746;51.328;12.332;2023-04-20T08:27:59;100807.16;;;9.39;67.70
77590;BME280;66746;51.328;12.332;2023-04-20T08:30:25;100798.75;;;9.83;64.68
77590;BME280;66746;51.328;12.332;2023-04-20T08:32:52;100798.75;;;9.83;62.36
77590;BME280;66746;51.328;12.332;2023-04-20T08:35:18;100795.03;;;10.20;65.52
77590;BME280;66746;51.328;12.332;2023-04-20T08:37:45;100793.19;;;10.51;61.70
77590;BME280;66746;51.328;12.332;2023-04-20T08:40:12;100786.91;;;10.78;61.36
77590;BME280;66746;51.328;12.332;2023-04-20T08:42:40;100793.50;;;10.97;61.96
77590;BME280;66746;51.328;12.332;2023-04-20T08:45:07;100793.25;;;11.32;59.09
77590;BME280;66746;51.328;12.332;2023-04-20T08:47:34;100790.97;;;11.73;59.15
77590;BME280;66746;51.328;12.332;2023-04-20T08:50:03;100792.72;;;11.98;58.93
77590;BME280;66746;51.328;12.332;2023-04-20T08:52:30;100801.84;;;11.73;57.34
77590;BME280;66746;51.328;12.332;2023-04-20T08:54:59;100798.75;;;11.55;59.07
77590;BME280;66746;51.328;12.332;2023-04-20T08:57:26;100807.66;;;11.61;58.06
77590;BME280;66746;51.328;12.332;2023-04-20T08:59:54;100802.63;;;11.22;59.36
77590;BME280;66746;51.328;12.332;2023-04-20T09:02:21;100804.63;;;11.17;58.78
77590;BME280;66746;51.328;12.332;2023-04-20T09:04:48;100798.09;;;11.23;61.25
77590;BME280;66746;51.328;12.332;2023-04-20T09:07:19;100799.91;;;10.67;61.57
77590;BME280;66746;51.328;12.332;2023-04-20T09:09:55;100793.38;;;10.45;62.93
77590;BME280;66746;51.328;12.332;2023-04-20T09:12:22;100800.63;;;10.14;62.79
77590;BME280;66746;51.328;12.332;2023-04-20T09:14:49;100803.34;;;10.14;65.30
77590;BME280;66746;51.328;12.332;2023-04-20T09:17:29;100806.31;;;10.64;63.74
77590;BME280;66746;51.328;12.332;2023-04-20T09:19:56;100810.00;;;10.91;62.87
77590;BME280;66746;51.328;12.332;2023-04-20T09:22:28;100805.88;;;11.59;61.57
77590;BME280;66746;51.328;12.332;2023-04-20T09:24:55;100812.59;;;12.25;56.99
77590;BME280;66746;51.328;12.332;2023-04-20T09:27:22;100806.41;;;12.20;58.48
77590;BME280;66746;51.328;12.332;2023-04-20T09:29:56;100793.97;;;12.84;56.24
77590;BME280;66746;51.328;12.332;2023-04-20T09:32:25;100811.69;;;12.49;56.98
77590;BME280;66746;51.328;12.332;2023-04-20T09:34:52;100798.84;;;12.97;56.45
77590;BME280;66746;51.328;12.332;2023-04-20T09:37:18;100806.34;;;13.36;55.24
77590;BME280;66746;51.328;12.332;2023-04-20T09:39:45;100801.28;;;13.05;54.63
77590;BME280;66746;51.328;12.332;2023-04-20T09:42:14;100817.75;;;13.02;53.90
77590;BME280;66746;51.328;12.332;2023-04-20T09:44:41;100805.41;;;12.70;56.21
77590;BME280;66746;51.328;12.332;2023-04-20T09:47:08;100801.78;;;12.70;55.51
77590;BME280;66746;51.328;12.332;2023-04-20T09:49:44;100795.84;;;13.05;56.27
77590;BME280;66746;51.328;12.332;2023-04-20T09:52:13;100798.06;;;13.17;54.02
77590;BME280;66746;51.328;12.332;2023-04-20T09:54:41;100804.03;;;13.26;55.15
77590;BME280;66746;51.328;12.332;2023-04-20T09:57:08;100800.63;;;13.21;53.58
77590;BME280;66746;51.328;12.332;2023-04-20T09:59:35;100809.31;;;13.08;53.93
77590;BME280;66746;51.328;12.332;2023-04-20T10:02:01;100805.63;;;12.41;54.03
77590;BME280;66746;51.328;12.332;2023-04-20T10:04:32;100814.97;;;11.85;58.02
77590;BME280;66746;51.328;12.332;2023-04-20T10:07:00;100827.41;;;11.39;58.61
77590;BME280;66746;51.328;12.332;2023-04-20T10:09:27;100820.44;;;11.03;60.41
77590;BME280;66746;51.328;12.332;2023-04-20T10:12:04;100825.28;;;11.21;60.83
77590;BME280;66746;51.328;12.332;2023-04-20T10:14:30;100818.28;;;11.14;59.53
77590;BME280;66746;51.328;12.332;2023-04-20T10:16:58;100826.13;;;11.49;58.79
77590;BME280;66746;51.328;12.332;2023-04-20T10:19:35;100827.03;;;11.50;58.29
77590;BME280;66746;51.328;12.332;2023-04-20T10:22:03;100825.63;;;11.38;58.17
77590;BME280;66746;51.328;12.332;2023-04-20T10:24:30;100813.41;;;11.25;58.57
77590;BME280;66746;51.328;12.332;2023-04-20T10:26:57;100815.59;;;11.40;58.42
77590;BME280;66746;51.328;12.332;2023-04-20T10:29:25;100811.91;;;11.41;57.12
77590;BME280;66746;51.328;12.332;2023-04-20T10:31:52;100806.97;;;11.54;56.43
77590;BME280;66746;51.328;12.332;2023-04-20T10:34:28;100801.94;;;11.70;56.16
77590;BME280;66746;51.328;12.332;2023-04-20T10:37:07;100793.25;;;11.58;55.11
77590;BME280;66746;51.328;12.332;2023-04-20T10:39:33;100784.22;;;11.84;55.78
77590;BME280;66746;51.328;12.332;2023-04-20T10:42:00;100767.00;;;11.84;56.11
77590;BME280;66746;51.328;12.332;2023-04-20T10:44:27;100762.81;;;12.23;56.22
77590;BME280;66746;51.328;12.332;2023-04-20T10:46:54;100760.41;;;12.38;54.56
77590;BME280;66746;51.328;12.332;2023-04-20T10:49:24;100755.72;;;12.42;53.89
77590;BME280;66746;51.328;12.332;2023-04-20T10:51:52;100754.44;;;12.29;54.84
77590;BME280;66746;51.328;12.332;2023-04-20T10:54:22;100765.19;;;11.84;56.24
77590;BME280;66746;51.328;12.332;2023-04-20T10:56:50;100768.50;;;11.68;59.87
77590;BME280;66746;51.328;12.332;2023-04-20T10:59:19;100770.78;;;11.53;57.73
77590;BME280;66746;51.328;12.332;2023-04-20T11:01:46;100761.78;;;11.51;57.99
77590;BME280;66746;51.328;12.332;2023-04-20T11:04:13;100755.31;;;11.55;58.48
77590;BME280;66746;51.328;12.332;2023-04-20T11:06:45;100763.28;;;11.35;57.79
77590;BME280;66746;51.328;12.332;2023-04-20T11:09:16;100770.56;;;11.07;60.22
77590;BME280;66746;51.328;12.332;2023-04-20T11:11:45;100753.84;;;10.93;60.57
77590;BME280;66746;51.328;12.332;2023-04-20T11:14:11;100761.19;;;10.62;61.44
77590;BME280;66746;51.328;12.332;2023-04-20T11:16:38;100754.00;;;10.61;62.17
77590;BME280;66746;51.328;12.332;2023-04-20T11:19:07;100758.28;;;10.68;64.06
77590;BME280;66746;51.328;12.332;2023-04-20T11:21:35;100755.53;;;10.69;64.17
77590;BME280;66746;51.328;12.332;2023-04-20T11:24:02;100760.09;;;10.67;62.20
77590;BME280;66746;51.328;12.332;2023-04-20T11:26:33;100746.34;;;10.46;64.21
77590;BME280;66746;51.328;12.332;2023-04-20T11:29:01;100754.56;;;10.43;64.70
77590;BME280;66746;51.328;12.332;2023-04-20T11:31:28;100756.16;;;10.21;62.48
77590;BME280;66746;51.328;12.332;2023-04-20T11:33:54;100747.00;;;10.25;64.81
77590;BME280;66746;51.328;12.332;2023-04-20T11:36:22;100745.41;;;10.18;66.84
77590;BME280;66746;51.328;12.332;2023-04-20T11:38:49;100748.31;;;10.12;67.14
77590;BME280;66746;51.328;12.332;2023-04-20T11:41:16;100756.56;;;10.06;64.70
77590;BME280;66746;51.328;12.332;2023-04-20T11:43:43;100749.25;;;9.78;65.03
77590;BME280;66746;51.328;12.332;2023-04-20T11:46:15;100749.00;;;9.55;65.45
77590;BME280;66746;51.328;12.332;2023-04-20T11:48:42;100755.41;;;9.51;68.45
77590;BME280;66746;51.328;12.332;2023-04-20T11:51:09;100749.44;;;9.39;67.41
77590;BME280;66746;51.328;12.332;2023-04-20T11:53:35;100750.34;;;9.39;68.74
77590;BME280;66746;51.328;12.332;2023-04-20T11:56:02;100746.78;;;9.37;68.39
77590;BME280;66746;51.328;12.332;2023-04-20T11:58:28;100754.09;;;9.34;69.52
77590;BME280;66746;51.328;12.332;2023-04-20T12:00:55;100753.16;;;9.35;69.04
77590;BME280;66746;51.328;12.332;2023-04-20T12:03:23;100753.59;;;9.18;68.22
77590;BME280;66746;51.328;12.332;2023-04-20T12:05:49;100753.47;;;9.23;68.85
77590;BME280;66746;51.328;12.332;2023-04-20T12:08:16;100749.69;;;9.28;67.08
77590;BME280;66746;51.328;12.332;2023-04-20T12:10:43;100739.13;;;9.53;68.34
77590;BME280;66746;51.328;12.332;2023-04-20T12:13:09;100733.41;;;9.63;67.46
77590;BME280;66746;51.328;12.332;2023-04-20T12:15:35;100725.78;;;9.77;66.14
77590;BME280;66746;51.328;12.332;2023-04-20T12:18:02;100740.94;;;9.85;66.11
77590;BME280;66746;51.328;12.332;2023-04-20T12:20:30;100739.94;;;9.87;65.92
77590;BME280;66746;51.328;12.332;2023-04-20T12:22:56;100741.47;;;9.97;66.92
77590;BME280;66746;51.328;12.332;2023-04-20T12:25:24;100731.53;;;9.98;67.04
77590;BME280;66746;51.328;12.332;2023-04-20T12:27:51;100733.38;;;9.96;67.59
77590;BME280;66746;51.328;12.332;2023-04-20T12:30:17;100742.63;;;9.89;68.23
77590;BME280;66746;51.328;12.332;2023-04-20T12:32:44;100744.16;;;9.97;67.83
77590;BME280;66746;51.328;12.332;2023-04-20T12:35:10;100722.72;;;10.20;68.90
77590;BME280;66746;51.328;12.332;2023-04-20T12:37:38;100716.88;;;10.34;66.15
77590;BME280;66746;51.328;12.332;2023-04-20T12:40:06;100723.47;;;10.54;66.91
77590;BME280;66746;51.328;12.332;2023-04-20T12:42:32;100717.66;;;10.39;66.71
77590;BME280;66746;51.328;12.332;2023-04-20T12:44:59;100729.66;;;10.30;66.92
77590;BME280;66746;51.328;12.332;2023-04-20T12:47:25;100727.22;;;10.21;68.26
77590;BME280;66746;51.328;12.332;2023-04-20T12:49:52;100735.78;;;10.06;67.73
77590;BME280;66746;51.328;12.332;2023-04-20T12:52:18;100732.81;;;9.85;69.33